sensor_id;sensor_type;location;lat;lon;timestamp;P1;durP1;ratioP1;P2;durP2;ratioP2
10096;SDS011;5087;42.662;23.466;2023-11-21T00:00:14;0.20;;;0.20;;
10096;SDS011;5087;42.662;23.466;2023-11-21T00:02:43;0.20;;;0.20;;
10096;SDS011;5087;42.662;23.466;2023-11-21T00:05:12;0.10;;;0.10;;
10096;SDS011;5087;42.662;23.466;2023-11-21T00:07:42;0.20;;;0.20;;
10096;SDS011;5087;42.662;23.466;2023-11-21T00:10:10;0.10;;;0.10;;
10096;SDS011;5087;42.662;23.466;2023-11-21T00:12:39;0.20;;;0.20;;
10096;SDS011;5087;42.662;23.466;2023-11-21T00:15:09;0.20;;;0.20;;
10096;SDS011;5087;42.662;23.466;2023-11-21T00:17:37;0.20;;;0.20;;
10096;SDS011;5087;42.662;23.466;2023-11-21T00:20:08;0.20;;;0.20;;
10096;SDS011;5087;42.662;23.466;2023-11-21T00:22:39;0.20;;;0.20;;
10096;SDS011;5087;42.662;23.466;2023-11-21T00:25:09;0.20;;;0.20;;
10096;SDS011;5087;42.662;23.466;2023-11-21T00:27:38;0.30;;;0.30;;
10096;SDS011;5087;42.662;23.466;2023-11-21T00:30:05;0.30;;;0.30;;
10096;SDS011;5087;42.662;23.466;2023-11-21T00:32:36;0.30;;;0.30;;
10096;SDS011;5087;42.662;23.466;2023-11-21T00:35:04;0.40;;;0.40;;
10096;SDS011;5087;42.662;23.466;2023-11-21T00:37:32;0.40;;;0.40;;
10096;SDS011;5087;42.662;23.466;2023-11-21T00:40:00;0.37;;;0.37;;
10096;SDS011;5087;42.662;23.466;2023-11-21T00:42:31;0.40;;;0.40;;
10096;SDS011;5087;42.662;23.466;2023-11-21T00:44:59;0.40;;;0.40;;
10096;SDS011;5087;42.662;23.466;2023-11-21T00:47:27;0.30;;;0.30;;
10096;SDS011;5087;42.662;23.466;2023-11-21T00:49:56;0.30;;;0.30;;
10096;SDS011;5087;42.662;23.466;2023-11-21T00:52:23;0.30;;;0.30;;
10096;SDS011;5087;42.662;23.466;2023-11-21T00:54:51;0.40;;;0.40;;
10096;SDS011;5087;42.662;23.466;2023-11-21T00:57:19;0.50;;;0.50;;
10096;SDS011;5087;42.662;23.466;2023-11-21T00:59:46;0.40;;;0.40;;
10096;SDS011;5087;42.662;23.466;2023-11-21T01:02:14;0.40;;;0.40;;
10096;SDS011;5087;42.662;23.466;2023-11-21T01:04:41;0.50;;;0.50;;
10096;SDS011;5087;42.662;23.466;2023-11-21T01:07:10;0.50;;;0.50;;
10096;SDS011;5087;42.662;23.466;2023-11-21T01:09:39;0.40;;;0.40;;
10096;SDS011;5087;42.662;23.466;2023-11-21T01:12:08;0.40;;;0.40;;
10096;SDS011;5087;42.662;23.466;2023-11-21T01:14:41;0.40;;;0.40;;
10096;SDS011;5087;42.662;23.466;2023-11-21T01:17:11;0.40;;;0.40;;
10096;SDS011;5087;42.662;23.466;2023-11-21T01:19:38;0.40;;;0.40;;
10096;SDS011;5087;42.662;23.466;2023-11-21T01:22:06;0.40;;;0.40;;
10096;SDS011;5087;42.662;23.466;2023-11-21T01:24:38;0.30;;;0.30;;
10096;SDS011;5087;42.662;23.466;2023-11-21T01:27:06;0.40;;;0.40;;
10096;SDS011;5087;42.662;23.466;2023-11-21T01:29:34;0.30;;;0.30;;
10096;SDS011;5087;42.662;23.466;2023-11-21T01:32:02;0.33;;;0.33;;
10096;SDS011;5087;42.662;23.466;2023-11-21T01:34:30;0.30;;;0.30;;
10096;SDS011;5087;42.662;23.466;2023-11-21T01:36:57;0.40;;;0.40;;
10096;SDS011;5087;42.662;23.466;2023-11-21T01:39:25;0.40;;;0.40;;
10096;SDS011;5087;42.662;23.466;2023-11-21T01:41:55;0.37;;;0.37;;
10096;SDS011;5087;42.662;23.466;2023-11-21T01:44:24;0.30;;;0.30;;
10096;SDS011;5087;42.662;23.466;2023-11-21T01:46:51;0.30;;;0.30;;
10096;SDS011;5087;42.662;23.466;2023-11-21T01:49:19;0.30;;;0.30;;
10096;SDS011;5087;42.662;23.466;2023-11-21T01:51:47;0.27;;;0.27;;
10096;SDS011;5087;42.662;23.466;2023-11-21T01:54:16;0.30;;;0.30;;
10096;SDS011;5087;42.662;23.466;2023-11-21T01:56:44;0.27;;;0.27;;
10096;SDS011;5087;42.662;23.466;2023-11-21T01:59:17;0.30;;;0.30;;
10096;SDS011;5087;42.662;23.466;2023-11-21T02:01:47;0.20;;;0.20;;
10096;SDS011;5087;42.662;23.466;2023-11-21T02:04:15;0.20;;;0.20;;
10096;SDS011;5087;42.662;23.466;2023-11-21T02:06:43;0.20;;;0.20;;
10096;SDS011;5087;42.662;23.466;2023-11-21T02:09:10;0.20;;;0.20;;
10096;SDS011;5087;42.662;23.466;2023-11-21T02:11:40;0.30;;;0.30;;
10096;SDS011;5087;42.662;23.466;2023-11-21T02:14:08;0.23;;;0.23;;
10096;SDS011;5087;42.662;23.466;2023-11-21T02:16:41;0.30;;;0.30;;
10096;SDS011;5087;42.662;23.466;2023-11-21T02:19:14;0.30;;;0.30;;
10096;SDS011;5087;42.662;23.466;2023-11-21T02:21:45;0.30;;;0.30;;
10096;SDS011;5087;42.662;23.466;2023-11-21T02:24:17;0.50;;;0.50;;
10096;SDS011;5087;42.662;23.466;2023-11-21T02:26:45;0.40;;;0.40;;
10096;SDS011;5087;42.662;23.466;2023-11-21T02:29:13;0.40;;;0.40;;
10096;SDS011;5087;42.662;23.466;2023-11-21T02:31:43;0.43;;;0.43;;
10096;SDS011;5087;42.662;23.466;2023-11-21T02:34:15;0.50;;;0.50;;
10096;SDS011;5087;42.662;23.466;2023-11-21T02:36:43;0.50;;;0.50;;
10096;SDS011;5087;42.662;23.466;2023-11-21T02:39:11;0.50;;;0.50;;
10096;SDS011;5087;42.662;23.466;2023-11-21T02:41:40;0.50;;;0.50;;
10096;SDS011;5087;42.662;23.466;2023-11-21T02:44:07;0.60;;;0.60;;
10096;SDS011;5087;42.662;23.466;2023-11-21T02:46:35;0.60;;;0.60;;
10096;SDS011;5087;42.662;23.466;2023-11-21T02:49:05;0.60;;;0.60;;
10096;SDS011;5087;42.662;23.466;2023-11-21T02:51:35;0.60;;;0.60;;
10096;SDS011;5087;42.662;23.466;2023-11-21T02:54:09;0.50;;;0.50;;
10096;SDS011;5087;42.662;23.466;2023-11-21T02:56:36;0.50;;;0.50;;
10096;SDS011;5087;42.662;23.466;2023-11-21T02:59:09;0.40;;;0.40;;
10096;SDS011;5087;42.662;23.466;2023-11-21T03:01:36;0.30;;;0.30;;
10096;SDS011;5087;42.662;23.466;2023-11-21T03:04:03;0.30;;;0.30;;
10096;SDS011;5087;42.662;23.466;2023-11-21T03:06:35;0.30;;;0.30;;
10096;SDS011;5087;42.662;23.466;2023-11-21T03:09:03;0.30;;;0.30;;
10096;SDS011;5087;42.662;23.466;2023-11-21T03:11:33;0.30;;;0.30;;
10096;SDS011;5087;42.662;23.466;2023-11-21T03:14:00;0.33;;;0.33;;
10096;SDS011;5087;42.662;23.466;2023-11-21T03:16:29;0.47;;;0.47;;
10096;SDS011;5087;42.662;23.466;2023-11-21T03:18:56;0.30;;;0.30;;
10096;SDS011;5087;42.662;23.466;2023-11-21T03:21:24;0.40;;;0.40;;
10096;SDS011;5087;42.662;23.466;2023-11-21T03:23:52;0.40;;;0.40;;
10096;SDS011;5087;42.662;23.466;2023-11-21T03:26:19;0.30;;;0.30;;
10096;SDS011;5087;42.662;23.466;2023-11-21T03:28:46;0.30;;;0.30;;
10096;SDS011;5087;42.662;23.466;2023-11-21T03:31:14;0.30;;;0.30;;
10096;SDS011;5087;42.662;23.466;2023-11-21T03:33:45;0.30;;;0.30;;
10096;SDS011;5087;42.662;23.466;2023-11-21T03:36:12;0.20;;;0.20;;
10096;SDS011;5087;42.662;23.466;2023-11-21T03:38:41;0.30;;;0.30;;
10096;SDS011;5087;42.662;23.466;2023-11-21T03:41:08;0.30;;;0.30;;
10096;SDS011;5087;42.662;23.466;2023-11-21T03:43:36;0.30;;;0.30;;
10096;SDS011;5087;42.662;23.466;2023-11-21T03:46:04;0.30;;;0.30;;
10096;SDS011;5087;42.662;23.466;2023-11-21T03:48:32;0.30;;;0.30;;
10096;SDS011;5087;42.662;23.466;2023-11-21T03:51:01;0.20;;;0.20;;
10096;SDS011;5087;42.662;23.466;2023-11-21T03:53:29;0.30;;;0.30;;
10096;SDS011;5087;42.662;23.466;2023-11-21T03:55:56;0.30;;;0.30;;
10096;SDS011;5087;42.662;23.466;2023-11-21T03:58:24;0.20;;;0.20;;
10096;SDS011;5087;42.662;23.466;2023-11-21T04:00:51;0.23;;;0.23;;
10096;SDS011;5087;42.662;23.466;2023-11-21T04:03:21;0.30;;;0.30;;
10096;SDS011;5087;42.662;23.466;2023-11-21T04:05:48;0.30;;;0.30;;
10096;SDS011;5087;42.662;23.466;2023-11-21T04:08:17;0.10;;;0.10;;
10096;SDS011;5087;42.662;23.466;2023-11-21T04:10:44;0.10;;;0.10;;
10096;SDS011;5087;42.662;23.466;2023-11-21T04:13:11;0.00;;;0.00;;
10096;SDS011;5087;42.662;23.466;2023-11-21T04:15:39;0.20;;;0.20;;
10096;SDS011;5087;42.662;23.466;2023-11-21T04:18:07;0.20;;;0.20;;
10096;SDS011;5087;42.662;23.466;2023-11-21T04:20:35;0.20;;;0.20;;
10096;SDS011;5087;42.662;23.466;2023-11-21T04:23:02;0.20;;;0.20;;
10096;SDS011;5087;42.662;23.466;2023-11-21T04:25:30;0.30;;;0.30;;
10096;SDS011;5087;42.662;23.466;2023-11-21T04:27:58;0.20;;;0.20;;
10096;SDS011;5087;42.662;23.466;2023-11-21T04:30:25;0.20;;;0.20;;
10096;SDS011;5087;42.662;23.466;2023-11-21T04:32:52;0.30;;;0.30;;
10096;SDS011;5087;42.662;23.466;2023-11-21T04:35:20;0.20;;;0.20;;
10096;SDS011;5087;42.662;23.466;2023-11-21T04:37:47;0.20;;;0.20;;
10096;SDS011;5087;42.662;23.466;2023-11-21T04:40:16;0.30;;;0.30;;
10096;SDS011;5087;42.662;23.466;2023-11-21T04:42:47;0.30;;;0.30;;
10096;SDS011;5087;42.662;23.466;2023-11-21T04:45:15;0.30;;;0.30;;
10096;SDS011;5087;42.662;23.466;2023-11-21T04:47:42;0.30;;;0.30;;
10096;SDS011;5087;42.662;23.466;2023-11-21T04:50:10;0.20;;;0.20;;
10096;SDS011;5087;42.662;23.466;2023-11-21T04:52:38;0.20;;;0.20;;
10096;SDS011;5087;42.662;23.466;2023-11-21T04:55:06;0.30;;;0.30;;
10096;SDS011;5087;42.662;23.466;2023-11-21T04:57:35;0.30;;;0.30;;
10096;SDS011;5087;42.662;23.466;2023-11-21T05:00:04;0.30;;;0.30;;
10096;SDS011;5087;42.662;23.466;2023-11-21T05:02:33;0.23;;;0.23;;
10096;SDS011;5087;42.662;23.466;2023-11-21T05:05:00;0.33;;;0.33;;
10096;SDS011;5087;42.662;23.466;2023-11-21T05:07:29;0.30;;;0.30;;
10096;SDS011;5087;42.662;23.466;2023-11-21T05:09:56;0.30;;;0.30;;
10096;SDS011;5087;42.662;23.466;2023-11-21T05:12:24;0.20;;;0.20;;
10096;SDS011;5087;42.662;23.466;2023-11-21T05:14:51;0.20;;;0.20;;
10096;SDS011;5087;42.662;23.466;2023-11-21T05:17:20;0.20;;;0.20;;
10096;SDS011;5087;42.662;23.466;2023-11-21T05:19:48;0.10;;;0.10;;
10096;SDS011;5087;42.662;23.466;2023-11-21T05:22:15;0.10;;;0.10;;
10096;SDS011;5087;42.662;23.466;2023-11-21T05:24:42;0.10;;;0.10;;
10096;SDS011;5087;42.662;23.466;2023-11-21T05:27:09;0.10;;;0.10;;
10096;SDS011;5087;42.662;23.466;2023-11-21T05:29:37;0.10;;;0.10;;
10096;SDS011;5087;42.662;23.466;2023-11-21T05:32:04;0.20;;;0.20;;
10096;SDS011;5087;42.662;23.466;2023-11-21T05:34:34;0.20;;;0.20;;
10096;SDS011;5087;42.662;23.466;2023-11-21T05:37:02;0.20;;;0.20;;
10096;SDS011;5087;42.662;23.466;2023-11-21T05:39:30;0.20;;;0.20;;
10096;SDS011;5087;42.662;23.466;2023-11-21T05:41:58;0.30;;;0.30;;
10096;SDS011;5087;42.662;23.466;2023-11-21T05:44:25;0.30;;;0.30;;
10096;SDS011;5087;42.662;23.466;2023-11-21T05:46:52;0.30;;;0.30;;
10096;SDS011;5087;42.662;23.466;2023-11-21T05:49:20;0.30;;;0.30;;
10096;SDS011;5087;42.662;23.466;2023-11-21T05:51:49;0.30;;;0.30;;
10096;SDS011;5087;42.662;23.466;2023-11-21T05:54:19;0.40;;;0.40;;
10096;SDS011;5087;42.662;23.466;2023-11-21T05:56:47;0.30;;;0.30;;
10096;SDS011;5087;42.662;23.466;2023-11-21T05:59:14;0.30;;;0.30;;
10096;SDS011;5087;42.662;23.466;2023-11-21T06:01:42;0.27;;;0.27;;
10096;SDS011;5087;42.662;23.466;2023-11-21T06:04:12;0.10;;;0.10;;
10096;SDS011;5087;42.662;23.466;2023-11-21T06:06:40;0.10;;;0.10;;
10096;SDS011;5087;42.662;23.466;2023-11-21T06:09:09;0.10;;;0.10;;
10096;SDS011;5087;42.662;23.466;2023-11-21T06:11:37;0.10;;;0.10;;
10096;SDS011;5087;42.662;23.466;2023-11-21T06:14:04;0.10;;;0.10;;
10096;SDS011;5087;42.662;23.466;2023-11-21T06:16:36;0.10;;;0.10;;
10096;SDS011;5087;42.662;23.466;2023-11-21T06:19:04;0.10;;;0.10;;
10096;SDS011;5087;42.662;23.466;2023-11-21T06:21:35;0.10;;;0.10;;
10096;SDS011;5087;42.662;23.466;2023-11-21T06:24:03;0.20;;;0.20;;
10096;SDS011;5087;42.662;23.466;2023-11-21T06:26:32;0.10;;;0.10;;
10096;SDS011;5087;42.662;23.466;2023-11-21T06:29:00;0.20;;;0.20;;
10096;SDS011;5087;42.662;23.466;2023-11-21T06:31:28;0.20;;;0.20;;
10096;SDS011;5087;42.662;23.466;2023-11-21T06:33:58;0.20;;;0.20;;
10096;SDS011;5087;42.662;23.466;2023-11-21T06:36:26;0.20;;;0.20;;
10096;SDS011;5087;42.662;23.466;2023-11-21T06:38:53;0.20;;;0.20;;
10096;SDS011;5087;42.662;23.466;2023-11-21T06:41:20;0.20;;;0.20;;
10096;SDS011;5087;42.662;23.466;2023-11-21T06:43:50;0.20;;;0.20;;
10096;SDS011;5087;42.662;23.466;2023-11-21T06:46:18;0.20;;;0.20;;
10096;SDS011;5087;42.662;23.466;2023-11-21T06:48:45;0.20;;;0.20;;
10096;SDS011;5087;42.662;23.466;2023-11-21T06:51:14;0.20;;;0.20;;
10096;SDS011;5087;42.662;23.466;2023-11-21T06:53:41;0.23;;;0.23;;
10096;SDS011;5087;42.662;23.466;2023-11-21T06:56:15;0.30;;;0.30;;
10096;SDS011;5087;42.662;23.466;2023-11-21T06:58:43;0.30;;;0.30;;
10096;SDS011;5087;42.662;23.466;2023-11-21T07:01:12;0.40;;;0.40;;
10096;SDS011;5087;42.662;23.466;2023-11-21T07:03:40;0.40;;;0.40;;
10096;SDS011;5087;42.662;23.466;2023-11-21T07:06:08;0.50;;;0.50;;
10096;SDS011;5087;42.662;23.466;2023-11-21T07:08:39;0.50;;;0.50;;
10096;SDS011;5087;42.662;23.466;2023-11-21T07:11:09;0.50;;;0.50;;
10096;SDS011;5087;42.662;23.466;2023-11-21T07:13:36;0.83;;;0.83;;
10096;SDS011;5087;42.662;23.466;2023-11-21T07:16:03;1.00;;;1.00;;
10096;SDS011;5087;42.662;23.466;2023-11-21T07:18:33;1.00;;;1.00;;
10096;SDS011;5087;42.662;23.466;2023-11-21T07:21:00;1.00;;;1.00;;
10096;SDS011;5087;42.662;23.466;2023-11-21T07:23:28;1.20;;;1.20;;
10096;SDS011;5087;42.662;23.466;2023-11-21T07:25:55;1.40;;;1.40;;
10096;SDS011;5087;42.662;23.466;2023-11-21T07:28:23;1.43;;;1.43;;
10096;SDS011;5087;42.662;23.466;2023-11-21T07:30:51;1.43;;;1.43;;
10096;SDS011;5087;42.662;23.466;2023-11-21T07:33:18;1.77;;;1.77;;
10096;SDS011;5087;42.662;23.466;2023-11-21T07:35:49;1.90;;;1.90;;
10096;SDS011;5087;42.662;23.466;2023-11-21T07:38:17;2.10;;;2.10;;
10096;SDS011;5087;42.662;23.466;2023-11-21T07:40:44;2.30;;;2.30;;
10096;SDS011;5087;42.662;23.466;2023-11-21T07:43:11;2.20;;;2.20;;
10096;SDS011;5087;42.662;23.466;2023-11-21T07:45:39;2.10;;;2.10;;
10096;SDS011;5087;42.662;23.466;2023-11-21T07:48:10;1.70;;;1.70;;
10096;SDS011;5087;42.662;23.466;2023-11-21T07:50:37;1.60;;;1.60;;
10096;SDS011;5087;42.662;23.466;2023-11-21T07:53:06;1.40;;;1.40;;
10096;SDS011;5087;42.662;23.466;2023-11-21T07:55:34;1.43;;;1.43;;
10096;SDS011;5087;42.662;23.466;2023-11-21T07:58:02;1.43;;;1.43;;
10096;SDS011;5087;42.662;23.466;2023-11-21T08:00:29;1.50;;;1.50;;
10096;SDS011;5087;42.662;23.466;2023-11-21T08:02:57;1.57;;;1.57;;
10096;SDS011;5087;42.662;23.466;2023-11-21T08:05:24;1.60;;;1.60;;
10096;SDS011;5087;42.662;23.466;2023-11-21T08:07:52;1.90;;;1.90;;
10096;SDS011;5087;42.662;23.466;2023-11-21T08:10:20;1.90;;;1.90;;
10096;SDS011;5087;42.662;23.466;2023-11-21T08:12:48;2.10;;;2.10;;
10096;SDS011;5087;42.662;23.466;2023-11-21T08:15:16;2.20;;;2.20;;
10096;SDS011;5087;42.662;23.466;2023-11-21T08:17:44;2.20;;;2.20;;
10096;SDS011;5087;42.662;23.466;2023-11-21T08:20:12;1.70;;;1.70;;
10096;SDS011;5087;42.662;23.466;2023-11-21T08:22:41;1.90;;;1.90;;
10096;SDS011;5087;42.662;23.466;2023-11-21T08:25:09;1.50;;;1.50;;
10096;SDS011;5087;42.662;23.466;2023-11-21T08:27:39;1.80;;;1.80;;
10096;SDS011;5087;42.662;23.466;2023-11-21T08:30:10;1.90;;;1.90;;
10096;SDS011;5087;42.662;23.466;2023-11-21T08:32:46;2.03;;;2.03;;
10096;SDS011;5087;42.662;23.466;2023-11-21T08:35:13;2.10;;;2.10;;
10096;SDS011;5087;42.662;23.466;2023-11-21T08:37:41;2.10;;;2.10;;
10096;SDS011;5087;42.662;23.466;2023-11-21T08:40:10;1.80;;;1.80;;
10096;SDS011;5087;42.662;23.466;2023-11-21T08:42:43;2.00;;;2.00;;
10096;SDS011;5087;42.662;23.466;2023-11-21T08:45:11;2.30;;;2.30;;
10096;SDS011;5087;42.662;23.466;2023-11-21T08:47:39;2.50;;;2.50;;
10096;SDS011;5087;42.662;23.466;2023-11-21T08:50:09;2.70;;;2.70;;
10096;SDS011;5087;42.662;23.466;2023-11-21T08:52:37;2.87;;;2.87;;
10096;SDS011;5087;42.662;23.466;2023-11-21T08:55:06;3.10;;;3.10;;
10096;SDS011;5087;42.662;23.466;2023-11-21T08:57:38;3.30;;;3.30;;
10096;SDS011;5087;42.662;23.466;2023-11-21T09:00:17;3.20;;;3.20;;
10096;SDS011;5087;42.662;23.466;2023-11-21T09:02:47;3.07;;;3.07;;
10096;SDS011;5087;42.662;23.466;2023-11-21T09:05:15;3.70;;;3.70;;
10096;SDS011;5087;42.662;23.466;2023-11-21T09:07:43;3.97;;;3.90;;
10096;SDS011;5087;42.662;23.466;2023-11-21T09:10:11;3.97;;;3.90;;
10096;SDS011;5087;42.662;23.466;2023-11-21T09:12:40;4.03;;;3.93;;
10096;SDS011;5087;42.662;23.466;2023-11-21T09:15:10;4.50;;;4.40;;
10096;SDS011;5087;42.662;23.466;2023-11-21T09:17:37;4.50;;;4.40;;
10096;SDS011;5087;42.662;23.466;2023-11-21T09:20:06;4.20;;;4.10;;
10096;SDS011;5087;42.662;23.466;2023-11-21T09:22:35;4.07;;;3.97;;
10096;SDS011;5087;42.662;23.466;2023-11-21T09:25:03;3.90;;;3.90;;
10096;SDS011;5087;42.662;23.466;2023-11-21T09:27:31;3.80;;;3.80;;
10096;SDS011;5087;42.662;23.466;2023-11-21T09:29:59;3.50;;;3.50;;
10096;SDS011;5087;42.662;23.466;2023-11-21T09:32:28;3.57;;;3.57;;
10096;SDS011;5087;42.662;23.466;2023-11-21T09:34:55;3.50;;;3.50;;
10096;SDS011;5087;42.662;23.466;2023-11-21T09:37:23;3.30;;;3.30;;
10096;SDS011;5087;42.662;23.466;2023-11-21T09:39:52;2.80;;;2.80;;
10096;SDS011;5087;42.662;23.466;2023-11-21T09:42:22;3.00;;;3.00;;
10096;SDS011;5087;42.662;23.466;2023-11-21T09:44:57;3.50;;;3.50;;
10096;SDS011;5087;42.662;23.466;2023-11-21T09:47:31;3.60;;;3.60;;
10096;SDS011;5087;42.662;23.466;2023-11-21T09:50:03;3.40;;;3.40;;
10096;SDS011;5087;42.662;23.466;2023-11-21T09:52:33;3.60;;;3.60;;
10096;SDS011;5087;42.662;23.466;2023-11-21T09:55:13;3.50;;;3.50;;
10096;SDS011;5087;42.662;23.466;2023-11-21T09:57:44;3.33;;;3.33;;
10096;SDS011;5087;42.662;23.466;2023-11-21T10:00:14;2.90;;;2.90;;
10096;SDS011;5087;42.662;23.466;2023-11-21T10:02:46;2.70;;;2.70;;
10096;SDS011;5087;42.662;23.466;2023-11-21T10:05:15;2.60;;;2.60;;
10096;SDS011;5087;42.662;23.466;2023-11-21T10:07:43;2.30;;;2.30;;
10096;SDS011;5087;42.662;23.466;2023-11-21T10:10:12;2.27;;;2.27;;
10096;SDS011;5087;42.662;23.466;2023-11-21T10:12:42;1.93;;;1.93;;
10096;SDS011;5087;42.662;23.466;2023-11-21T10:15:14;1.90;;;1.90;;
10096;SDS011;5087;42.662;23.466;2023-11-21T10:17:43;2.00;;;2.00;;
10096;SDS011;5087;42.662;23.466;2023-11-21T10:20:13;2.20;;;2.20;;
10096;SDS011;5087;42.662;23.466;2023-11-21T10:22:41;2.10;;;2.10;;
10096;SDS011;5087;42.662;23.466;2023-11-21T10:25:09;1.70;;;1.70;;
10096;SDS011;5087;42.662;23.466;2023-11-21T10:27:39;1.60;;;1.60;;
10096;SDS011;5087;42.662;23.466;2023-11-21T10:30:09;1.50;;;1.50;;
10096;SDS011;5087;42.662;23.466;2023-11-21T10:32:37;1.40;;;1.40;;
10096;SDS011;5087;42.662;23.466;2023-11-21T10:35:06;1.30;;;1.30;;
10096;SDS011;5087;42.662;23.466;2023-11-21T10:37:37;1.60;;;1.60;;
10096;SDS011;5087;42.662;23.466;2023-11-21T10:40:06;1.80;;;1.80;;
10096;SDS011;5087;42.662;23.466;2023-11-21T10:42:37;1.90;;;1.90;;
10096;SDS011;5087;42.662;23.466;2023-11-21T10:45:06;2.00;;;2.00;;
10096;SDS011;5087;42.662;23.466;2023-11-21T10:47:39;1.60;;;1.60;;
10096;SDS011;5087;42.662;23.466;2023-11-21T10:50:07;1.50;;;1.50;;
10096;SDS011;5087;42.662;23.466;2023-11-21T10:52:38;1.60;;;1.60;;
10096;SDS011;5087;42.662;23.466;2023-11-21T10:55:18;1.50;;;1.50;;
10096;SDS011;5087;42.662;23.466;2023-11-21T10:57:48;1.40;;;1.40;;
10096;SDS011;5087;42.662;23.466;2023-11-21T11:00:17;1.33;;;1.33;;
10096;SDS011;5087;42.662;23.466;2023-11-21T11:02:46;1.33;;;1.33;;
10096;SDS011;5087;42.662;23.466;2023-11-21T11:05:16;1.20;;;1.20;;
10096;SDS011;5087;42.662;23.466;2023-11-21T11:07:48;1.40;;;1.40;;
10096;SDS011;5087;42.662;23.466;2023-11-21T11:10:19;1.30;;;1.30;;
10096;SDS011;5087;42.662;23.466;2023-11-21T11:12:48;1.20;;;1.20;;
10096;SDS011;5087;42.662;23.466;2023-11-21T11:15:17;1.30;;;1.30;;
10096;SDS011;5087;42.662;23.466;2023-11-21T11:17:49;1.20;;;1.20;;
10096;SDS011;5087;42.662;23.466;2023-11-21T11:20:22;1.20;;;1.20;;
10096;SDS011;5087;42.662;23.466;2023-11-21T11:22:59;1.10;;;1.10;;
10096;SDS011;5087;42.662;23.466;2023-11-21T11:25:41;0.90;;;0.90;;
10096;SDS011;5087;42.662;23.466;2023-11-21T11:28:20;1.10;;;1.10;;
10096;SDS011;5087;42.662;23.466;2023-11-21T11:30:53;1.03;;;1.03;;
10096;SDS011;5087;42.662;23.466;2023-11-21T11:33:33;1.10;;;1.10;;
10096;SDS011;5087;42.662;23.466;2023-11-21T11:36:06;1.00;;;1.00;;
10096;SDS011;5087;42.662;23.466;2023-11-21T11:38:45;1.10;;;1.10;;
10096;SDS011;5087;42.662;23.466;2023-11-21T11:41:19;1.00;;;1.00;;
10096;SDS011;5087;42.662;23.466;2023-11-21T11:43:52;1.00;;;1.00;;
10096;SDS011;5087;42.662;23.466;2023-11-21T11:46:19;1.00;;;1.00;;
10096;SDS011;5087;42.662;23.466;2023-11-21T11:48:48;1.00;;;1.00;;
10096;SDS011;5087;42.662;23.466;2023-11-21T11:51:15;1.00;;;1.00;;
10096;SDS011;5087;42.662;23.466;2023-11-21T11:53:46;1.30;;;1.30;;
10096;SDS011;5087;42.662;23.466;2023-11-21T11:56:22;1.57;;;1.57;;
10096;SDS011;5087;42.662;23.466;2023-11-21T11:58:52;1.90;;;1.90;;
10096;SDS011;5087;42.662;23.466;2023-11-21T12:01:29;2.10;;;2.10;;
10096;SDS011;5087;42.662;23.466;2023-11-21T12:06:56;1.80;;;1.80;;
10096;SDS011;5087;42.662;23.466;2023-11-21T12:09:30;1.80;;;1.80;;
10096;SDS011;5087;42.662;23.466;2023-11-21T12:11:59;1.90;;;1.90;;
10096;SDS011;5087;42.662;23.466;2023-11-21T12:14:27;2.00;;;2.00;;
10096;SDS011;5087;42.662;23.466;2023-11-21T12:16:57;1.80;;;1.80;;
10096;SDS011;5087;42.662;23.466;2023-11-21T12:19:25;1.90;;;1.90;;
10096;SDS011;5087;42.662;23.466;2023-11-21T12:21:53;1.80;;;1.80;;
10096;SDS011;5087;42.662;23.466;2023-11-21T12:24:21;3.40;;;3.40;;
10096;SDS011;5087;42.662;23.466;2023-11-21T12:26:50;3.50;;;3.50;;
10096;SDS011;5087;42.662;23.466;2023-11-21T12:29:18;4.80;;;4.70;;
10096;SDS011;5087;42.662;23.466;2023-11-21T12:31:46;4.97;;;4.87;;
10096;SDS011;5087;42.662;23.466;2023-11-21T12:34:16;4.80;;;4.70;;
10096;SDS011;5087;42.662;23.466;2023-11-21T12:36:43;5.30;;;5.20;;
10096;SDS011;5087;42.662;23.466;2023-11-21T12:39:11;5.47;;;5.37;;
10096;SDS011;5087;42.662;23.466;2023-11-21T12:41:40;4.73;;;4.63;;
10096;SDS011;5087;42.662;23.466;2023-11-21T12:44:11;4.60;;;4.50;;
10096;SDS011;5087;42.662;23.466;2023-11-21T12:46:41;4.30;;;4.20;;
10096;SDS011;5087;42.662;23.466;2023-11-21T12:49:10;4.10;;;4.00;;
10096;SDS011;5087;42.662;23.466;2023-11-21T12:51:43;3.70;;;3.70;;
10096;SDS011;5087;42.662;23.466;2023-11-21T12:54:11;4.60;;;4.50;;
10096;SDS011;5087;42.662;23.466;2023-11-21T12:56:39;5.00;;;4.90;;
10096;SDS011;5087;42.662;23.466;2023-11-21T12:59:07;5.03;;;4.93;;
10096;SDS011;5087;42.662;23.466;2023-11-21T13:01:41;4.20;;;4.10;;
10096;SDS011;5087;42.662;23.466;2023-11-21T13:04:12;4.20;;;4.10;;
10096;SDS011;5087;42.662;23.466;2023-11-21T13:06:39;4.50;;;4.40;;
10096;SDS011;5087;42.662;23.466;2023-11-21T13:09:09;4.40;;;4.30;;
10096;SDS011;5087;42.662;23.466;2023-11-21T13:11:38;4.60;;;4.50;;
10096;SDS011;5087;42.662;23.466;2023-11-21T13:14:06;4.23;;;4.13;;
10096;SDS011;5087;42.662;23.466;2023-11-21T13:16:38;4.30;;;4.20;;
10096;SDS011;5087;42.662;23.466;2023-11-21T13:19:11;4.03;;;3.97;;
10096;SDS011;5087;42.662;23.466;2023-11-21T13:21:38;4.33;;;4.23;;
10096;SDS011;5087;42.662;23.466;2023-11-21T13:24:06;4.40;;;4.30;;
10096;SDS011;5087;42.662;23.466;2023-11-21T13:26:35;4.97;;;4.87;;
10096;SDS011;5087;42.662;23.466;2023-11-21T13:29:03;4.97;;;4.87;;
10096;SDS011;5087;42.662;23.466;2023-11-21T13:31:30;4.27;;;4.17;;
10096;SDS011;5087;42.662;23.466;2023-11-21T13:33:59;3.90;;;3.90;;
10096;SDS011;5087;42.662;23.466;2023-11-21T13:36:30;4.40;;;4.30;;
10096;SDS011;5087;42.662;23.466;2023-11-21T13:39:00;4.60;;;4.50;;
10096;SDS011;5087;42.662;23.466;2023-11-21T13:41:36;5.00;;;4.90;;
10096;SDS011;5087;42.662;23.466;2023-11-21T13:44:04;5.00;;;4.90;;
10096;SDS011;5087;42.662;23.466;2023-11-21T13:46:41;5.07;;;4.97;;
10096;SDS011;5087;42.662;23.466;2023-11-21T13:49:11;4.70;;;4.60;;
10096;SDS011;5087;42.662;23.466;2023-11-21T13:51:41;4.70;;;4.60;;
10096;SDS011;5087;42.662;23.466;2023-11-21T13:54:10;4.60;;;4.50;;
10096;SDS011;5087;42.662;23.466;2023-11-21T13:56:38;4.47;;;4.37;;
10096;SDS011;5087;42.662;23.466;2023-11-21T13:59:06;4.10;;;4.00;;
10096;SDS011;5087;42.662;23.466;2023-11-21T14:01:45;4.33;;;4.23;;
10096;SDS011;5087;42.662;23.466;2023-11-21T14:04:22;4.30;;;4.20;;
10096;SDS011;5087;42.662;23.466;2023-11-21T14:07:20;3.67;;;3.67;;
10096;SDS011;5087;42.662;23.466;2023-11-21T14:09:55;4.10;;;4.00;;
10096;SDS011;5087;42.662;23.466;2023-11-21T14:12:24;3.60;;;3.60;;
10096;SDS011;5087;42.662;23.466;2023-11-21T14:14:51;3.33;;;3.33;;
10096;SDS011;5087;42.662;23.466;2023-11-21T14:17:19;3.20;;;3.20;;
10096;SDS011;5087;42.662;23.466;2023-11-21T14:19:49;3.20;;;3.20;;
10096;SDS011;5087;42.662;23.466;2023-11-21T14:22:16;3.10;;;3.10;;
10096;SDS011;5087;42.662;23.466;2023-11-21T14:24:46;3.00;;;3.00;;
10096;SDS011;5087;42.662;23.466;2023-11-21T14:27:15;3.13;;;3.13;;
10096;SDS011;5087;42.662;23.466;2023-11-21T14:29:43;3.50;;;3.50;;
10096;SDS011;5087;42.662;23.466;2023-11-21T14:32:14;3.50;;;3.50;;
10096;SDS011;5087;42.662;23.466;2023-11-21T14:34:42;3.50;;;3.50;;
10096;SDS011;5087;42.662;23.466;2023-11-21T14:37:27;3.30;;;3.30;;
10096;SDS011;5087;42.662;23.466;2023-11-21T14:40:11;3.20;;;3.20;;
10096;SDS011;5087;42.662;23.466;2023-11-21T14:42:41;3.30;;;3.30;;
10096;SDS011;5087;42.662;23.466;2023-11-21T14:45:12;3.00;;;3.00;;
10096;SDS011;5087;42.662;23.466;2023-11-21T14:47:53;3.20;;;3.20;;
10096;SDS011;5087;42.662;23.466;2023-11-21T14:50:33;3.00;;;3.00;;
10096;SDS011;5087;42.662;23.466;2023-11-21T14:53:18;2.80;;;2.80;;
10096;SDS011;5087;42.662;23.466;2023-11-21T14:56:06;2.73;;;2.73;;
10096;SDS011;5087;42.662;23.466;2023-11-21T14:58:34;2.60;;;2.60;;
10096;SDS011;5087;42.662;23.466;2023-11-21T15:01:16;2.60;;;2.60;;
10096;SDS011;5087;42.662;23.466;2023-11-21T15:04:13;2.50;;;2.50;;